sensor_id;sensor_type;location;lat;lon;timestamp;pressure;altitude;pressure_sealevel;temperature;humidity
72560;BME280;62987;52.382;9.752;2024-03-08T00:01:58;101523.13;;;1.90;100.00
72560;BME280;62987;52.382;9.752;2024-03-08T00:04:27;101536.28;;;1.98;100.00
72560;BME280;62987;52.382;9.752;2024-03-08T00:06:56;101528.41;;;1.96;100.00
72560;BME280;62987;52.382;9.752;2024-03-08T00:09:24;101524.03;;;1.95;100.00
72560;BME280;62987;52.382;9.752;2024-03-08T00:11:54;101507.41;;;1.92;100.00
72560;BME280;62987;52.382;9.752;2024-03-08T00:14:24;101524.91;;;1.93;100.00
72560;BME280;62987;52.382;9.752;2024-03-08T00:16:53;101518.78;;;1.92;100.00
72560;BME280;62987;52.382;9.752;2024-03-08T00:19:21;101520.53;;;1.93;100.00
72560;BME280;62987;52.382;9.752;2024-03-08T00:21:50;101529.25;;;1.91;100.00
72560;BME280;62987;52.382;9.752;2024-03-08T00:24:18;101526.59;;;1.85;100.00
72560;BME280;62987;52.382;9.752;2024-03-08T00:26:51;101528.28;;;1.78;100.00
72560;BME280;62987;52.382;9.752;2024-03-08T00:29:20;101522.97;;;1.66;100.00
72560;BME280;62987;52.382;9.752;2024-03-08T00:31:50;101517.69;;;1.60;100.00
72560;BME280;62987;52.382;9.752;2024-03-08T00:34:19;101521.25;;;1.73;100.00
72560;BME280;62987;52.382;9.752;2024-03-08T00:36:47;101524.72;;;1.67;100.00
72560;BME280;62987;52.382;9.752;2024-03-08T00:39:16;101519.41;;;1.58;100.00
72560;BME280;62987;52.382;9.752;2024-03-08T00:41:44;101528.13;;;1.54;100.00
72560;BME280;62987;52.382;9.752;2024-03-08T00:44:13;101515.00;;;1.57;100.00
72560;BME280;62987;52.382;9.752;2024-03-08T00:46:42;101519.44;;;1.61;100.00
72560;BME280;62987;52.382;9.752;2024-03-08T00:49:12;101508.91;;;1.55;100.00
72560;BME280;62987;52.382;9.752;2024-03-08T00:51:43;101511.50;;;1.53;100.00
72560;BME280;62987;52.382;9.752;2024-03-08T00:54:12;101503.53;;;1.43;100.00
72560;BME280;62987;52.382;9.752;2024-03-08T00:56:40;101503.53;;;1.43;100.00
72560;BME280;62987;52.382;9.752;2024-03-08T00:59:11;101498.25;;;1.37;100.00
72560;BME280;62987;52.382;9.752;2024-03-08T01:01:41;101494.78;;;1.38;100.00
72560;BME280;62987;52.382;9.752;2024-03-08T01:04:12;101500.00;;;1.35;100.00
72560;BME280;62987;52.382;9.752;2024-03-08T01:06:41;101492.16;;;1.39;100.00
72560;BME280;62987;52.382;9.752;2024-03-08T01:09:14;101496.50;;;1.37;100.00
72560;BME280;62987;52.382;9.752;2024-03-08T01:11:44;101489.53;;;1.35;100.00
72560;BME280;62987;52.382;9.752;2024-03-08T01:14:13;101484.34;;;1.41;100.00
72560;BME280;62987;52.382;9.752;2024-03-08T01:16:41;101484.38;;;1.47;100.00
72560;BME280;62987;52.382;9.752;2024-03-08T01:19:11;101481.72;;;1.41;100.00
72560;BME280;62987;52.382;9.752;2024-03-08T01:21:43;101469.41;;;1.29;100.00
72560;BME280;62987;52.382;9.752;2024-03-08T01:24:12;101469.41;;;1.29;100.00
72560;BME280;62987;52.382;9.752;2024-03-08T01:26:40;101464.13;;;1.28;100.00
72560;BME280;62987;52.382;9.752;2024-03-08T01:29:08;101466.72;;;1.25;100.00
72560;BME280;62987;52.382;9.752;2024-03-08T01:31:37;101461.59;;;1.35;100.00
72560;BME280;62987;52.382;9.752;2024-03-08T01:34:05;101458.00;;;1.26;100.00
72560;BME280;62987;52.382;9.752;2024-03-08T01:36:38;101456.31;;;1.37;100.00
72560;BME280;62987;52.382;9.752;2024-03-08T01:39:07;101458.03;;;1.29;100.00
72560;BME280;62987;52.382;9.752;2024-03-08T01:41:36;101444.91;;;1.27;100.00
72560;BME280;62987;52.382;9.752;2024-03-08T01:44:05;101449.25;;;1.24;100.00
72560;BME280;62987;52.382;9.752;2024-03-08T01:46:35;101437.84;;;1.17;100.00
72560;BME280;62987;52.382;9.752;2024-03-08T01:49:03;101441.41;;;1.25;100.00
72560;BME280;62987;52.382;9.752;2024-03-08T01:51:32;101437.91;;;1.22;100.00
72560;BME280;62987;52.382;9.752;2024-03-08T01:54:04;101435.19;;;1.12;100.00
72560;BME280;62987;52.382;9.752;2024-03-08T01:56:33;101428.16;;;1.05;100.00
72560;BME280;62987;52.382;9.752;2024-03-08T01:59:01;101412.38;;;0.99;100.00
72560;BME280;62987;52.382;9.752;2024-03-08T02:01:30;101424.72;;;1.09;100.00
72560;BME280;62987;52.382;9.752;2024-03-08T02:03:59;101422.91;;;1.02;100.00
72560;BME280;62987;52.382;9.752;2024-03-08T02:06:27;101423.72;;;1.00;100.00
72560;BME280;62987;52.382;9.752;2024-03-08T02:08:57;101421.00;;;0.86;100.00
72560;BME280;62987;52.382;9.752;2024-03-08T02:11:34;101414.00;;;0.82;100.00
72560;BME280;62987;52.382;9.752;2024-03-08T02:14:04;101415.72;;;0.80;100.00
72560;BME280;62987;52.382;9.752;2024-03-08T02:16:33;101414.88;;;0.83;100.00
72560;BME280;62987;52.382;9.752;2024-03-08T02:19:04;101420.94;;;0.80;100.00
72560;BME280;62987;52.382;9.752;2024-03-08T02:21:38;101415.81;;;0.89;100.00
72560;BME280;62987;52.382;9.752;2024-03-08T02:24:06;101416.63;;;0.84;100.00
72560;BME280;62987;52.382;9.752;2024-03-08T02:26:35;101421.84;;;0.82;100.00
72560;BME280;62987;52.382;9.752;2024-03-08T02:29:04;101407.00;;;0.81;100.00
72560;BME280;62987;52.382;9.752;2024-03-08T02:31:33;101407.91;;;0.83;100.00
72560;BME280;62987;52.382;9.752;2024-03-08T02:34:07;101408.72;;;0.79;100.00
72560;BME280;62987;52.382;9.752;2024-03-08T02:36:39;101403.50;;;0.77;100.00
72560;BME280;62987;52.382;9.752;2024-03-08T02:39:09;101400.00;;;0.77;100.00
72560;BME280;62987;52.382;9.752;2024-03-08T02:41:38;101402.59;;;0.75;100.00
72560;BME280;62987;52.382;9.752;2024-03-08T02:44:07;101399.06;;;0.73;100.00
72560;BME280;62987;52.382;9.752;2024-03-08T02:46:36;101405.19;;;0.74;100.00
72560;BME280;62987;52.382;9.752;2024-03-08T02:49:04;101392.91;;;0.68;100.00
72560;BME280;62987;52.382;9.752;2024-03-08T02:51:34;101395.50;;;0.64;100.00
72560;BME280;62987;52.382;9.752;2024-03-08T02:54:05;101394.59;;;0.60;100.00
72560;BME280;62987;52.382;9.752;2024-03-08T02:56:33;101377.88;;;0.45;100.00
72560;BME280;62987;52.382;9.752;2024-03-08T02:59:02;101389.22;;;0.48;100.00
72560;BME280;62987;52.382;9.752;2024-03-08T03:01:30;101386.59;;;0.47;100.00
72560;BME280;62987;52.382;9.752;2024-03-08T03:03:59;101375.22;;;0.42;100.00
72560;BME280;62987;52.382;9.752;2024-03-08T03:06:28;101377.03;;;0.49;100.00
72560;BME280;62987;52.382;9.752;2024-03-08T03:08:57;101376.13;;;0.47;100.00
72560;BME280;62987;52.382;9.752;2024-03-08T03:11:27;101368.22;;;0.37;100.00
72560;BME280;62987;52.382;9.752;2024-03-08T03:13:55;101364.66;;;0.34;100.00
72560;BME280;62987;52.382;9.752;2024-03-08T03:16:24;101360.25;;;0.25;100.00
72560;BME280;62987;52.382;9.752;2024-03-08T03:18:52;101357.56;;;0.19;100.00
72560;BME280;62987;52.382;9.752;2024-03-08T03:21:21;101363.50;;;0.08;100.00
72560;BME280;62987;52.382;9.752;2024-03-08T03:23:49;101354.81;;;0.09;100.00
72560;BME280;62987;52.382;9.752;2024-03-08T03:26:18;101350.47;;;0.09;100.00
72560;BME280;62987;52.382;9.752;2024-03-08T03:28:48;101354.72;;;-0.01;100.00
72560;BME280;62987;52.382;9.752;2024-03-08T03:31:17;101354.69;;;-0.04;100.00
72560;BME280;62987;52.382;9.752;2024-03-08T03:33:46;101363.44;;;-0.02;100.00
72560;BME280;62987;52.382;9.752;2024-03-08T03:36:22;101358.09;;;-0.09;100.00
72560;BME280;62987;52.382;9.752;2024-03-08T03:38:51;101348.38;;;-0.19;100.00
72560;BME280;62987;52.382;9.752;2024-03-08T03:41:32;101350.97;;;-0.22;100.00
72560;BME280;62987;52.382;9.752;2024-03-08T03:44:07;101349.16;;;-0.28;100.00
72560;BME280;62987;52.382;9.752;2024-03-08T03:46:35;101355.28;;;-0.27;100.00
72560;BME280;62987;52.382;9.752;2024-03-08T03:49:04;101356.19;;;-0.24;100.00
72560;BME280;62987;52.382;9.752;2024-03-08T03:51:32;101346.59;;;-0.23;100.00
72560;BME280;62987;52.382;9.752;2024-03-08T03:54:01;101355.28;;;-0.27;100.00
72560;BME280;62987;52.382;9.752;2024-03-08T03:56:30;101354.25;;;-0.38;100.00
72560;BME280;62987;52.382;9.752;2024-03-08T03:58:59;101354.22;;;-0.42;100.00
72560;BME280;62987;52.382;9.752;2024-03-08T04:01:29;101352.41;;;-0.47;100.00
72560;BME280;62987;52.382;9.752;2024-03-08T04:03:58;101342.84;;;-0.47;100.00
72560;BME280;62987;52.382;9.752;2024-03-08T04:06:26;101353.31;;;-0.44;100.00
72560;BME280;62987;52.382;9.752;2024-03-08T04:08:55;101351.53;;;-0.48;100.00
72560;BME280;62987;52.382;9.752;2024-03-08T04:11:24;101354.16;;;-0.46;100.00
72560;BME280;62987;52.382;9.752;2024-03-08T04:13:52;101349.78;;;-0.49;100.00
72560;BME280;62987;52.382;9.752;2024-03-08T04:16:21;101355.06;;;-0.46;100.00
72560;BME280;62987;52.382;9.752;2024-03-08T04:18:52;101349.75;;;-0.50;100.00
72560;BME280;62987;52.382;9.752;2024-03-08T04:21:20;101353.28;;;-0.47;100.00
72560;BME280;62987;52.382;9.752;2024-03-08T04:23:48;101357.69;;;-0.43;100.00
72560;BME280;62987;52.382;9.752;2024-03-08T04:26:17;101350.66;;;-0.48;100.00
72560;BME280;62987;52.382;9.752;2024-03-08T04:28:46;101342.75;;;-0.53;100.00
72560;BME280;62987;52.382;9.752;2024-03-08T04:31:14;101341.81;;;-0.59;100.00
72560;BME280;62987;52.382;9.752;2024-03-08T04:33:42;101343.50;;;-0.61;100.00
72560;BME280;62987;52.382;9.752;2024-03-08T04:36:13;101346.09;;;-0.63;100.00
72560;BME280;62987;52.382;9.752;2024-03-08T04:38:42;101337.25;;;-0.74;100.00
72560;BME280;62987;52.382;9.752;2024-03-08T04:41:11;101340.91;;;-0.61;100.00
72560;BME280;62987;52.382;9.752;2024-03-08T04:43:40;101335.56;;;-0.69;100.00
72560;BME280;62987;52.382;9.752;2024-03-08T04:46:09;101337.38;;;-0.65;100.00
72560;BME280;62987;52.382;9.752;2024-03-08T04:48:37;101339.97;;;-0.66;100.00
72560;BME280;62987;52.382;9.752;2024-03-08T04:51:06;101329.41;;;-0.74;100.00
72560;BME280;62987;52.382;9.752;2024-03-08T04:53:38;101332.19;;;-0.62;100.00
72560;BME280;62987;52.382;9.752;2024-03-08T04:56:07;101332.03;;;-0.74;100.00
72560;BME280;62987;52.382;9.752;2024-03-08T04:58:35;101326.97;;;-0.62;100.00
72560;BME280;62987;52.382;9.752;2024-03-08T05:01:04;101333.13;;;-0.57;100.00
72560;BME280;62987;52.382;9.752;2024-03-08T05:03:33;101320.91;;;-0.59;100.00
72560;BME280;62987;52.382;9.752;2024-03-08T05:06:02;101318.25;;;-0.62;100.00
72560;BME280;62987;52.382;9.752;2024-03-08T05:08:31;101318.22;;;-0.64;100.00
72560;BME280;62987;52.382;9.752;2024-03-08T05:11:05;101318.22;;;-0.64;100.00
72560;BME280;62987;52.382;9.752;2024-03-08T05:13:34;101307.75;;;-0.67;100.00
72560;BME280;62987;52.382;9.752;2024-03-08T05:16:03;101313.94;;;-0.60;100.00
72560;BME280;62987;52.382;9.752;2024-03-08T05:18:46;101316.50;;;-0.65;100.00
72560;BME280;62987;52.382;9.752;2024-03-08T05:21:15;101308.72;;;-0.59;100.00
72560;BME280;62987;52.382;9.752;2024-03-08T05:23:47;101307.91;;;-0.55;100.00
72560;BME280;62987;52.382;9.752;2024-03-08T05:26:18;101315.84;;;-0.47;100.00
72560;BME280;62987;52.382;9.752;2024-03-08T05:28:47;101308.81;;;-0.51;100.00
72560;BME280;62987;52.382;9.752;2024-03-08T05:31:19;101301.78;;;-0.57;100.00
72560;BME280;62987;52.382;9.752;2024-03-08T05:33:48;101317.50;;;-0.51;100.00
72560;BME280;62987;52.382;9.752;2024-03-08T05:36:16;101316.72;;;-0.47;100.00
72560;BME280;62987;52.382;9.752;2024-03-08T05:38:45;101321.88;;;-0.53;100.00
72560;BME280;62987;52.382;9.752;2024-03-08T05:41:13;101319.34;;;-0.47;100.00
72560;BME280;62987;52.382;9.752;2024-03-08T05:43:43;101309.72;;;-0.49;100.00
72560;BME280;62987;52.382;9.752;2024-03-08T05:46:15;101308.03;;;-0.43;100.00
72560;BME280;62987;52.382;9.752;2024-03-08T05:48:45;101312.31;;;-0.49;100.00
72560;BME280;62987;52.382;9.752;2024-03-08T05:51:14;101315.06;;;-0.38;100.00
72560;BME280;62987;52.382;9.752;2024-03-08T05:53:42;101313.16;;;-0.52;100.00
72560;BME280;62987;52.382;9.752;2024-03-08T05:56:11;101313.25;;;-0.46;100.00
72560;BME280;62987;52.382;9.752;2024-03-08T05:58:39;101308.13;;;-0.36;100.00
72560;BME280;62987;52.382;9.752;2024-03-08T06:01:09;101310.78;;;-0.32;100.00
72560;BME280;62987;52.382;9.752;2024-03-08T06:03:39;101312.53;;;-0.32;100.00
72560;BME280;62987;52.382;9.752;2024-03-08T06:06:12;101291.50;;;-0.43;100.00
72560;BME280;62987;52.382;9.752;2024-03-08T06:08:41;101297.88;;;-0.18;100.00
72560;BME280;62987;52.382;9.752;2024-03-08T06:11:10;101302.28;;;-0.14;100.00
72560;BME280;62987;52.382;9.752;2024-03-08T06:13:41;101264.56;;;-0.37;100.00
72560;BME280;62987;52.382;9.752;2024-03-08T06:16:11;101311.00;;;-0.15;100.00
72560;BME280;62987;52.382;9.752;2024-03-08T06:18:39;101298.81;;;-0.13;100.00
72560;BME280;62987;52.382;9.752;2024-03-08T06:21:09;101301.44;;;-0.13;100.00
72560;BME280;62987;52.382;9.752;2024-03-08T06:23:38;101307.59;;;-0.07;100.00
72560;BME280;62987;52.382;9.752;2024-03-08T06:26:07;101310.31;;;0.04;100.00
72560;BME280;62987;52.382;9.752;2024-03-08T06:28:36;101303.50;;;0.18;100.00
72560;BME280;62987;52.382;9.752;2024-03-08T06:31:04;101298.22;;;0.12;100.00
72560;BME280;62987;52.382;9.752;2024-03-08T06:33:35;101297.47;;;0.25;100.00
72560;BME280;62987;52.382;9.752;2024-03-08T06:36:05;101302.69;;;0.27;100.00
72560;BME280;62987;52.382;9.752;2024-03-08T06:38:34;101303.72;;;0.43;100.00
72560;BME280;62987;52.382;9.752;2024-03-08T06:41:06;101288.84;;;0.40;100.00
72560;BME280;62987;52.382;9.752;2024-03-08T06:43:34;101298.53;;;0.49;100.00
72560;BME280;62987;52.382;9.752;2024-03-08T06:46:03;101304.78;;;0.67;100.00
72560;BME280;62987;52.382;9.752;2024-03-08T06:48:31;101299.41;;;2.37;100.00
72560;BME280;62987;52.382;9.752;2024-03-08T06:51:01;101292.41;;;2.42;100.00
72560;BME280;62987;52.382;9.752;2024-03-08T06:53:30;101279.28;;;2.66;100.00
72560;BME280;62987;52.382;9.752;2024-03-08T06:56:06;101295.03;;;2.62;100.00
72560;BME280;62987;52.382;9.752;2024-03-08T06:58:36;101293.22;;;3.14;100.00
72560;BME280;62987;52.382;9.752;2024-03-08T07:01:05;101274.69;;;3.52;100.00
72560;BME280;62987;52.382;9.752;2024-03-08T07:03:36;101295.88;;;3.02;100.00
72560;BME280;62987;52.382;9.752;2024-03-08T07:06:12;101292.41;;;2.91;100.00
72560;BME280;62987;52.382;9.752;2024-03-08T07:08:42;101292.38;;;3.06;100.00
72560;BME280;62987;52.382;9.752;2024-03-08T07:11:13;101300.28;;;2.50;100.00
72560;BME280;62987;52.382;9.752;2024-03-08T07:13:46;101291.53;;;2.87;100.00
72560;BME280;62987;52.382;9.752;2024-03-08T07:16:14;101283.69;;;2.58;100.00
72560;BME280;62987;52.382;9.752;2024-03-08T07:18:43;101299.34;;;3.19;100.00
72560;BME280;62987;52.382;9.752;2024-03-08T07:21:14;101283.44;;;3.58;100.00
72560;BME280;62987;52.382;9.752;2024-03-08T07:27:00;101290.66;;;2.74;100.00
72560;BME280;62987;52.382;9.752;2024-03-08T07:30:01;101285.41;;;2.84;100.00
72560;BME280;62987;52.382;9.752;2024-03-08T07:32:35;101287.19;;;2.78;100.00
72560;BME280;62987;52.382;9.752;2024-03-08T07:35:03;101285.31;;;3.29;100.00
72560;BME280;62987;52.382;9.752;2024-03-08T07:37:35;101282.47;;;3.79;100.00
72560;BME280;62987;52.382;9.752;2024-03-08T07:40:04;101263.97;;;3.94;100.00
72560;BME280;62987;52.382;9.752;2024-03-08T07:42:33;101273.59;;;3.97;100.00
72560;BME280;62987;52.382;9.752;2024-03-08T07:45:02;101268.28;;;5.80;100.00
72560;BME280;62987;52.382;9.752;2024-03-08T07:47:31;101257.88;;;5.70;100.00
72560;BME280;62987;52.382;9.752;2024-03-08T07:50:04;101262.94;;;6.95;100.00
72560;BME280;62987;52.382;9.752;2024-03-08T07:52:36;101258.44;;;5.94;100.00
72560;BME280;62987;52.382;9.752;2024-03-08T07:55:05;101259.31;;;6.53;100.00
72560;BME280;62987;52.382;9.752;2024-03-08T07:57:34;101261.66;;;7.19;100.00
72560;BME280;62987;52.382;9.752;2024-03-08T08:00:05;101258.22;;;6.10;100.00
72560;BME280;62987;52.382;9.752;2024-03-08T08:02:35;101244.59;;;6.37;100.00
72560;BME280;62987;52.382;9.752;2024-03-08T08:05:07;101257.38;;;5.39;100.00
72560;BME280;62987;52.382;9.752;2024-03-08T08:07:39;101254.88;;;5.28;100.00
72560;BME280;62987;52.382;9.752;2024-03-08T08:10:12;101268.00;;;6.60;100.00
72560;BME280;62987;52.382;9.752;2024-03-08T08:12:46;101256.50;;;6.09;100.00
72560;BME280;62987;52.382;9.752;2024-03-08T08:15:15;101242.03;;;6.83;100.00
72560;BME280;62987;52.382;9.752;2024-03-08T08:17:45;101249.72;;;5.89;100.00
72560;BME280;62987;52.382;9.752;2024-03-08T08:20:14;101248.31;;;6.25;100.00
72560;BME280;62987;52.382;9.752;2024-03-08T08:22:47;101244.63;;;9.48;95.15
72560;BME280;62987;52.382;9.752;2024-03-08T08:25:19;101238.72;;;11.29;77.86
72560;BME280;62987;52.382;9.752;2024-03-08T08:27:50;101229.88;;;10.52;77.99
72560;BME280;62987;52.382;9.752;2024-03-08T08:30:19;101243.66;;;9.52;82.33
72560;BME280;62987;52.382;9.752;2024-03-08T08:32:49;101243.31;;;8.31;93.21
72560;BME280;62987;52.382;9.752;2024-03-08T08:35:18;101245.19;;;7.46;98.39
72560;BME280;62987;52.382;9.752;2024-03-08T08:37:48;101239.53;;;7.65;100.00
72560;BME280;62987;52.382;9.752;2024-03-08T08:40:18;101230.25;;;9.55;93.79
72560;BME280;62987;52.382;9.752;2024-03-08T08:42:47;101228.56;;;9.21;89.28
72560;BME280;62987;52.382;9.752;2024-03-08T08:45:16;101227.31;;;9.93;88.43
72560;BME280;62987;52.382;9.752;2024-03-08T08:48:00;101218.34;;;11.03;74.82
72560;BME280;62987;52.382;9.752;2024-03-08T08:50:29;101208.69;;;12.17;68.90
72560;BME280;62987;52.382;9.752;2024-03-08T08:53:00;101202.22;;;14.56;56.93
72560;BME280;62987;52.382;9.752;2024-03-08T08:55:34;101197.91;;;14.35;53.63
72560;BME280;62987;52.382;9.752;2024-03-08T08:58:06;101200.56;;;15.71;48.67
72560;BME280;62987;52.382;9.752;2024-03-08T09:00:35;101201.31;;;13.06;52.96
72560;BME280;62987;52.382;9.752;2024-03-08T09:03:05;101217.50;;;11.50;64.13
72560;BME280;62987;52.382;9.752;2024-03-08T09:05:34;101207.09;;;13.93;53.47
72560;BME280;62987;52.382;9.752;2024-03-08T09:08:07;101187.75;;;13.10;57.44
72560;BME280;62987;52.382;9.752;2024-03-08T09:10:37;101193.19;;;13.09;57.12
72560;BME280;62987;52.382;9.752;2024-03-08T09:13:06;101171.19;;;14.69;49.16
72560;BME280;62987;52.382;9.752;2024-03-08T09:15:45;101167.81;;;16.43;46.58
72560;BME280;62987;52.382;9.752;2024-03-08T09:18:15;101183.56;;;14.37;48.60
72560;BME280;62987;52.382;9.752;2024-03-08T09:20:44;101191.81;;;11.94;55.61
72560;BME280;62987;52.382;9.752;2024-03-08T09:23:15;101182.56;;;11.11;63.25
72560;BME280;62987;52.382;9.752;2024-03-08T09:25:45;101177.25;;;10.87;67.76
72560;BME280;62987;52.382;9.752;2024-03-08T09:28:14;101177.88;;;11.65;64.58
72560;BME280;62987;52.382;9.752;2024-03-08T09:30:44;101169.31;;;10.60;66.63
72560;BME280;62987;52.382;9.752;2024-03-08T09:33:26;101177.25;;;9.80;77.28
72560;BME280;62987;52.382;9.752;2024-03-08T09:35:56;101184.03;;;9.33;83.49
72560;BME280;62987;52.382;9.752;2024-03-08T09:38:34;101167.13;;;10.71;75.68
72560;BME280;62987;52.382;9.752;2024-03-08T09:41:03;101154.22;;;10.36;75.71
72560;BME280;62987;52.382;9.752;2024-03-08T09:43:33;101159.09;;;10.98;73.43
72560;BME280;62987;52.382;9.752;2024-03-08T09:46:04;101139.94;;;12.03;65.45
72560;BME280;62987;52.382;9.752;2024-03-08T09:48:34;101125.53;;;15.05;56.20
72560;BME280;62987;52.382;9.752;2024-03-08T09:51:05;101111.41;;;15.68;47.54
72560;BME280;62987;52.382;9.752;2024-03-08T09:53:40;101124.09;;;13.01;52.50
72560;BME280;62987;52.382;9.752;2024-03-08T09:56:13;101125.22;;;11.71;59.94
72560;BME280;62987;52.382;9.752;2024-03-08T09:58:45;101116.31;;;10.79;64.32
72560;BME280;62987;52.382;9.752;2024-03-08T10:01:31;101123.84;;;10.15;70.69
72560;BME280;62987;52.382;9.752;2024-03-08T10:04:02;101124.50;;;12.11;64.88
72560;BME280;62987;52.382;9.752;2024-03-08T10:06:31;101124.69;;;10.93;65.43
72560;BME280;62987;52.382;9.752;2024-03-08T10:09:01;101109.13;;;13.17;58.13
72560;BME280;62987;52.382;9.752;2024-03-08T10:11:33;101101.28;;;12.94;56.97
72560;BME280;62987;52.382;9.752;2024-03-08T10:14:02;101103.31;;;12.69;56.87
72560;BME280;62987;52.382;9.752;2024-03-08T10:16:31;101092.06;;;15.45;48.70
72560;BME280;62987;52.382;9.752;2024-03-08T10:19:02;101077.44;;;15.98;45.52
72560;BME280;62987;52.382;9.752;2024-03-08T10:21:32;101076.38;;;15.06;46.73
72560;BME280;62987;52.382;9.752;2024-03-08T10:24:04;101077.09;;;14.25;48.55
72560;BME280;62987;52.382;9.752;2024-03-08T10:26:34;101085.84;;;12.62;52.39
72560;BME280;62987;52.382;9.752;2024-03-08T10:29:05;101069.00;;;15.58;47.74
72560;BME280;62987;52.382;9.752;2024-03-08T10:31:34;101065.59;;;15.71;46.13
72560;BME280;62987;52.382;9.752;2024-03-08T10:34:03;101082.28;;;13.75;49.20
72560;BME280;62987;52.382;9.752;2024-03-08T10:36:34;101080.22;;;12.07;55.00
72560;BME280;62987;52.382;9.752;2024-03-08T10:39:10;101067.25;;;11.78;57.50
72560;BME280;62987;52.382;9.752;2024-03-08T10:41:48;101068.41;;;12.53;56.78
72560;BME280;62987;52.382;9.752;2024-03-08T10:44:32;101057.88;;;14.17;54.97
72560;BME280;62987;52.382;9.752;2024-03-08T10:47:12;101063.94;;;13.86;50.57
72560;BME280;62987;52.382;9.752;2024-03-08T10:49:51;101062.25;;;16.57;45.19
72560;BME280;62987;52.382;9.752;2024-03-08T10:52:22;101058.22;;;15.90;44.03
72560;BME280;62987;52.382;9.752;2024-03-08T10:54:54;101072.34;;;15.93;44.96
72560;BME280;62987;52.382;9.752;2024-03-08T10:57:26;101038.94;;;19.61;37.68
72560;BME280;62987;52.382;9.752;2024-03-08T10:59:57;101040.81;;;19.47;37.53
72560;BME280;62987;52.382;9.752;2024-03-08T11:02:26;101035.03;;;19.88;36.91
72560;BME280;62987;52.382;9.752;2024-03-08T11:04:55;101038.53;;;19.78;35.98
72560;BME280;62987;52.382;9.752;2024-03-08T11:07:25;101035.56;;;20.28;35.50
72560;BME280;62987;52.382;9.752;2024-03-08T11:09:57;101022.56;;;19.75;36.31
72560;BME280;62987;52.382;9.752;2024-03-08T11:12:27;101024.56;;;19.60;36.11
72560;BME280;62987;52.382;9.752;2024-03-08T11:15:10;101011.97;;;18.35;36.61
72560;BME280;62987;52.382;9.752;2024-03-08T11:17:46;101023.19;;;18.42;37.94
72560;BME280;62987;52.382;9.752;2024-03-08T11:20:17;101014.50;;;17.04;38.69
72560;BME280;62987;52.382;9.752;2024-03-08T11:22:50;101010.75;;;17.62;39.64
72560;BME280;62987;52.382;9.752;2024-03-08T11:25:39;101005.09;;;18.95;37.71
72560;BME280;62987;52.382;9.752;2024-03-08T11:28:23;100999.91;;;16.94;39.38
72560;BME280;62987;52.382;9.752;2024-03-08T11:31:23;100997.53;;;16.75;41.31
72560;BME280;62987;52.382;9.752;2024-03-08T11:34:01;100969.53;;;18.39;39.72
72560;BME280;62987;52.382;9.752;2024-03-08T11:36:34;100965.22;;;21.62;34.89
72560;BME280;62987;52.382;9.752;2024-03-08T11:39:05;100967.34;;;20.71;33.76
72560;BME280;62987;52.382;9.752;2024-03-08T11:41:43;100958.81;;;20.42;34.37
72560;BME280;62987;52.382;9.752;2024-03-08T11:44:14;100956.09;;;20.31;34.55
72560;BME280;62987;52.382;9.752;2024-03-08T11:46:47;100938.91;;;18.91;35.38
72560;BME280;62987;52.382;9.752;2024-03-08T11:49:15;100937.94;;;17.24;38.51
72560;BME280;62987;52.382;9.752;2024-03-08T11:51:45;100946.44;;;17.84;38.15
72560;BME280;62987;52.382;9.752;2024-03-08T11:54:16;100919.53;;;18.22;38.46
72560;BME280;62987;52.382;9.752;2024-03-08T11:56:46;100928.28;;;18.51;38.29
72560;BME280;62987;52.382;9.752;2024-03-08T11:59:15;100928.13;;;20.43;35.34
72560;BME280;62987;52.382;9.752;2024-03-08T12:01:58;100905.53;;;20.66;34.67
72560;BME280;62987;52.382;9.752;2024-03-08T12:04:27;100903.22;;;20.40;34.08
72560;BME280;62987;52.382;9.752;2024-03-08T12:06:57;100912.78;;;19.86;35.36
72560;BME280;62987;52.382;9.752;2024-03-08T12:09:28;100898.97;;;20.13;34.93
72560;BME280;62987;52.382;9.752;2024-03-08T12:11:59;100912.78;;;19.51;34.76
72560;BME280;62987;52.382;9.752;2024-03-08T12:14:31;100882.44;;;20.51;34.13
72560;BME280;62987;52.382;9.752;2024-03-08T12:17:00;100892.72;;;19.67;34.18
72560;BME280;62987;52.382;9.752;2024-03-08T12:19:29;100908.75;;;17.84;36.82
72560;BME280;62987;52.382;9.752;2024-03-08T12:21:57;100883.34;;;18.52;36.62
72560;BME280;62987;52.382;9.752;2024-03-08T12:24:36;100889.97;;;17.31;38.76
72560;BME280;62987;52.382;9.752;2024-03-08T12:27:19;100885.88;;;16.29;41.71
72560;BME280;62987;52.382;9.752;2024-03-08T12:29:47;100859.94;;;16.85;40.04
72560;BME280;62987;52.382;9.752;2024-03-08T12:32:18;100868.72;;;16.31;40.46
72560;BME280;62987;52.382;9.752;2024-03-08T12:34:52;100913.72;;;14.77;42.71
72560;BME280;62987;52.382;9.752;2024-03-08T12:37:22;100881.41;;;14.80;42.86
72560;BME280;62987;52.382;9.752;2024-03-08T12:40:05;100878.69;;;15.27;42.64
72560;BME280;62987;52.382;9.752;2024-03-08T12:42:38;100867.72;;;16.47;41.94
72560;BME280;62987;52.382;9.752;2024-03-08T12:45:08;100875.34;;;15.08;44.36
72560;BME280;62987;52.382;9.752;2024-03-08T12:47:39;100855.59;;;14.63;47.46
72560;BME280;62987;52.382;9.752;2024-03-08T12:50:12;100868.78;;;14.66;46.82
72560;BME280;62987;52.382;9.752;2024-03-08T12:52:44;100860.13;;;13.47;49.78
72560;BME280;62987;52.382;9.752;2024-03-08T12:55:16;100830.13;;;14.08;49.72
72560;BME280;62987;52.382;9.752;2024-03-08T12:57:47;100823.31;;;14.51;49.08
72560;BME280;62987;52.382;9.752;2024-03-08T13:00:17;100843.69;;;14.37;50.49
72560;BME280;62987;52.382;9.752;2024-03-08T13:02:49;100834.31;;;13.63;52.83
72560;BME280;62987;52.382;9.752;2024-03-08T13:05:18;100834.88;;;14.51;51.28
72560;BME280;62987;52.382;9.752;2024-03-08T13:07:47;100825.50;;;13.78;52.48
72560;BME280;62987;52.382;9.752;2024-03-08T13:10:19;100822.63;;;13.81;53.48